createdAt,value
2017-10-28T00:02:12.955Z,86.35
2017-10-28T00:04:40.359Z,86.64
2017-10-28T00:07:07.813Z,86.62
2017-10-28T00:09:35.253Z,85.98
2017-10-28T00:12:02.634Z,86.28
2017-10-28T00:14:30.062Z,86.45
2017-10-28T00:16:57.518Z,86.79
2017-10-28T00:19:24.914Z,87.45
2017-10-28T00:21:52.303Z,88.00
2017-10-28T00:24:19.704Z,88.54
2017-10-28T00:26:47.086Z,89.09
2017-10-28T00:29:14.482Z,89.50
2017-10-28T00:31:47.607Z,90.34
2017-10-28T00:34:20.542Z,90.11
2017-10-28T00:36:47.941Z,90.53
2017-10-28T00:39:15.387Z,90.49
2017-10-28T00:41:42.834Z,89.74
2017-10-28T00:44:10.302Z,89.43
2017-10-28T00:46:37.675Z,89.45
2017-10-28T00:49:05.083Z,89.44
2017-10-28T00:51:32.562Z,89.70
2017-10-28T00:53:59.967Z,89.57
2017-10-28T00:56:27.374Z,89.43
2017-10-28T00:58:54.780Z,88.71
2017-10-28T01:01:22.173Z,88.78
2017-10-28T01:03:49.566Z,88.13
2017-10-28T01:06:16.990Z,88.06
2017-10-28T01:08:44.377Z,88.09
2017-10-28T01:11:11.778Z,88.50
2017-10-28T01:13:39.176Z,88.61
2017-10-28T01:16:06.618Z,88.74
2017-10-28T01:18:34.067Z,88.41
2017-10-28T01:21:01.458Z,88.20
2017-10-28T01:23:28.848Z,88.31
2017-10-28T01:25:56.235Z,88.98
2017-10-28T01:28:23.627Z,88.90
2017-10-28T01:30:51.024Z,88.30
2017-10-28T01:33:18.510Z,88.10
2017-10-28T01:35:45.902Z,87.59
2017-10-28T01:38:13.291Z,87.55
2017-10-28T01:40:40.678Z,87.94
2017-10-28T01:43:08.095Z,88.61
2017-10-28T01:45:35.491Z,88.72
2017-10-28T01:48:02.875Z,88.84
2017-10-28T01:50:30.299Z,89.19
2017-10-28T01:52:57.682Z,88.99
2017-10-28T01:55:25.107Z,88.65
2017-10-28T01:57:52.562Z,89.46
2017-10-28T02:00:19.955Z,89.07
2017-10-28T02:02:47.379Z,88.52
2017-10-28T02:05:14.775Z,88.65
2017-10-28T02:07:42.173Z,88.95
2017-10-28T02:10:09.555Z,88.45
2017-10-28T02:12:37.007Z,88.37
2017-10-28T02:15:04.458Z,87.92
2017-10-28T02:17:31.850Z,88.46
2017-10-28T02:19:59.243Z,87.70
2017-10-28T02:22:26.639Z,88.12
2017-10-28T02:24:54.027Z,88.21
2017-10-28T02:27:21.427Z,88.56
2017-10-28T02:29:48.824Z,88.21
2017-10-28T02:32:16.206Z,88.31
2017-10-28T02:34:43.595Z,88.32
2017-10-28T02:37:11.052Z,88.04
2017-10-28T02:39:38.513Z,87.75
2017-10-28T02:42:05.894Z,87.66
2017-10-28T02:44:33.324Z,87.32
2017-10-28T02:47:00.704Z,86.98
2017-10-28T02:49:28.095Z,86.40
2017-10-28T02:51:55.490Z,86.36
2017-10-28T02:54:22.867Z,86.95
2017-10-28T02:56:50.262Z,86.48
2017-10-28T02:59:17.644Z,86.06
2017-10-28T03:01:45.057Z,85.75
2017-10-28T03:04:12.455Z,85.35
2017-10-28T03:06:39.843Z,85.56
2017-10-28T03:09:07.235Z,85.05
2017-10-28T03:11:34.629Z,84.62
2017-10-28T03:14:02.011Z,83.77
2017-10-28T03:16:29.398Z,83.36
2017-10-28T03:18:56.801Z,83.81
2017-10-28T03:21:24.191Z,82.81
2017-10-28T03:23:51.696Z,82.65
2017-10-28T03:26:19.075Z,83.05
2017-10-28T03:28:46.506Z,82.93
2017-10-28T03:31:13.895Z,82.46
2017-10-28T03:33:41.295Z,82.66
2017-10-28T03:36:08.670Z,83.15
2017-10-28T03:38:36.063Z,82.46
2017-10-28T03:41:03.482Z,81.83
2017-10-28T03:43:30.884Z,82.69
2017-10-28T03:45:58.268Z,82.57
2017-10-28T03:48:25.681Z,82.21
2017-10-28T03:50:53.058Z,82.57
2017-10-28T03:53:20.458Z,82.10
2017-10-28T03:55:47.913Z,81.92
2017-10-28T03:58:15.306Z,82.10
2017-10-28T04:00:42.730Z,81.63
2017-10-28T04:03:10.117Z,81.59
2017-10-28T04:05:37.515Z,81.46
2017-10-28T04:08:04.894Z,81.99
2017-10-28T04:10:32.299Z,82.24
2017-10-28T04:12:59.684Z,81.80
2017-10-28T04:15:27.085Z,81.25
2017-10-28T04:17:55.355Z,81.20
2017-10-28T04:20:22.763Z,80.97
2017-10-28T04:22:50.247Z,80.86
2017-10-28T04:25:17.686Z,81.31
2017-10-28T04:27:45.155Z,81.02
2017-10-28T04:30:12.563Z,81.75
2017-10-28T04:32:39.952Z,81.56
2017-10-28T04:35:07.352Z,81.69
2017-10-28T04:37:34.734Z,81.12
2017-10-28T04:40:02.139Z,80.98
2017-10-28T04:42:29.523Z,81.39
2017-10-28T04:44:56.946Z,81.80
2017-10-28T04:47:24.411Z,81.62
2017-10-28T04:49:51.799Z,81.62
2017-10-28T04:52:19.207Z,81.50
2017-10-28T04:54:46.626Z,81.59
2017-10-28T04:57:14.014Z,81.09
2017-10-28T04:59:41.484Z,81.05
2017-10-28T05:02:08.874Z,81.14
2017-10-28T05:04:36.294Z,81.28
2017-10-28T05:07:03.683Z,81.65
2017-10-28T05:09:31.073Z,81.35
2017-10-28T05:11:58.492Z,81.39
2017-10-28T05:14:25.858Z,81.44
2017-10-28T05:16:53.255Z,82.10
2017-10-28T05:19:20.646Z,82.16
2017-10-28T05:21:48.050Z,81.87
2017-10-28T05:24:15.438Z,81.44
2017-10-28T05:26:42.822Z,81.60
2017-10-28T05:29:10.210Z,81.35
2017-10-28T05:31:37.700Z,81.77
2017-10-28T05:34:05.090Z,81.92
2017-10-28T05:36:32.479Z,81.90
2017-10-28T05:38:59.869Z,81.76
2017-10-28T05:41:27.327Z,81.48
2017-10-28T05:43:54.779Z,81.66
2017-10-28T05:46:22.230Z,81.60
2017-10-28T05:48:49.697Z,81.40
2017-10-28T05:51:17.142Z,81.07
2017-10-28T05:53:44.538Z,81.04
2017-10-28T05:56:11.930Z,81.43
2017-10-28T05:58:39.334Z,81.10
2017-10-28T06:01:06.736Z,81.09
2017-10-28T06:03:34.141Z,81.41
2017-10-28T06:06:01.599Z,81.42
2017-10-28T06:08:28.998Z,81.22
2017-10-28T06:10:56.375Z,81.32
2017-10-28T06:13:23.846Z,81.34
2017-10-28T06:15:51.298Z,81.22
2017-10-28T06:18:18.770Z,81.34
2017-10-28T06:20:46.146Z,81.51
2017-10-28T06:23:13.546Z,81.73
2017-10-28T06:25:41.030Z,81.61
2017-10-28T06:28:08.439Z,81.05
2017-10-28T06:30:35.934Z,81.31
2017-10-28T06:33:03.347Z,81.34
2017-10-28T06:35:30.743Z,80.86
2017-10-28T06:37:58.151Z,81.05
2017-10-28T06:40:25.544Z,80.69
2017-10-28T06:42:52.934Z,80.83
2017-10-28T06:45:20.326Z,80.38
2017-10-28T06:47:47.742Z,80.98
2017-10-28T06:50:15.206Z,80.31
2017-10-28T06:52:42.598Z,80.25
2017-10-28T06:55:10.030Z,79.82
2017-10-28T06:57:37.480Z,80.43
2017-10-28T07:00:04.878Z,80.47
2017-10-28T07:02:32.267Z,80.35
2017-10-28T07:04:59.759Z,80.29
2017-10-28T07:07:27.210Z,80.01
2017-10-28T07:09:54.654Z,80.12
2017-10-28T07:12:22.118Z,80.86
2017-10-28T07:14:49.573Z,80.38
2017-10-28T07:17:17.030Z,80.33
2017-10-28T07:19:44.486Z,80.18
2017-10-28T07:22:11.878Z,79.83
2017-10-28T07:24:39.268Z,80.48
2017-10-28T07:27:06.759Z,80.26
2017-10-28T07:29:34.175Z,79.81
2017-10-28T07:32:01.551Z,79.80
2017-10-28T07:34:29.030Z,79.42
2017-10-28T07:36:56.470Z,79.96
2017-10-28T07:39:23.864Z,79.96
2017-10-28T07:41:51.259Z,79.97
2017-10-28T07:44:18.659Z,80.08
2017-10-28T07:46:46.047Z,79.90
2017-10-28T07:49:13.439Z,79.59
2017-10-28T07:51:40.835Z,79.59
2017-10-28T07:54:08.447Z,79.24
2017-10-28T07:56:35.838Z,79.39
2017-10-28T07:59:03.227Z,80.00
2017-10-28T08:01:30.622Z,78.50
2017-10-28T08:04:03.650Z,78.58
2017-10-28T08:06:31.053Z,78.51
2017-10-28T08:08:58.439Z,78.73
2017-10-28T08:11:25.830Z,78.37
2017-10-28T08:13:53.246Z,78.31
2017-10-28T08:16:20.654Z,78.80
2017-10-28T08:18:48.110Z,78.33
2017-10-28T08:21:15.508Z,78.73
2017-10-28T08:23:42.891Z,78.61
2017-10-28T08:26:10.287Z,78.04
2017-10-28T08:28:37.674Z,77.81
2017-10-28T08:31:05.094Z,78.37
2017-10-28T08:33:32.483Z,78.02
2017-10-28T08:35:59.886Z,78.13
2017-10-28T08:38:27.291Z,77.93
2017-10-28T08:40:54.684Z,78.13
2017-10-28T08:43:22.079Z,77.84
2017-10-28T08:45:49.466Z,78.04
2017-10-28T08:48:16.863Z,78.43
2017-10-28T08:50:44.266Z,77.89
2017-10-28T08:53:11.659Z,77.95
2017-10-28T08:55:39.149Z,76.95
2017-10-28T08:58:06.608Z,77.44
2017-10-28T09:00:33.994Z,76.42
2017-10-28T09:03:01.400Z,76.81
2017-10-28T09:05:28.785Z,76.98
2017-10-28T09:07:56.206Z,76.47
2017-10-28T09:10:23.682Z,77.02
2017-10-28T09:12:51.067Z,76.60
2017-10-28T09:15:18.460Z,76.44
2017-10-28T09:17:45.855Z,76.57
2017-10-28T09:20:13.302Z,75.85
2017-10-28T09:22:40.707Z,76.48
2017-10-28T09:25:08.097Z,76.34
2017-10-28T09:27:35.567Z,76.27
2017-10-28T09:30:03.771Z,76.14
2017-10-28T09:32:31.171Z,76.95
2017-10-28T09:34:58.553Z,77.28
2017-10-28T09:37:25.951Z,76.96
2017-10-28T09:39:53.371Z,77.02
2017-10-28T09:42:20.841Z,77.62
2017-10-28T09:44:48.207Z,77.23
2017-10-28T09:47:15.627Z,77.22
2017-10-28T09:49:43.083Z,77.97
2017-10-28T09:52:10.547Z,77.21
2017-10-28T09:54:37.939Z,77.59
2017-10-28T09:57:05.335Z,77.84
2017-10-28T09:59:32.728Z,77.09
2017-10-28T10:02:00.171Z,77.63
2017-10-28T10:04:27.607Z,77.09
2017-10-28T10:06:55.098Z,77.95
2017-10-28T10:09:22.490Z,77.54
2017-10-28T10:11:49.879Z,77.12
2017-10-28T10:14:17.350Z,77.35
2017-10-28T10:16:44.808Z,77.20
2017-10-28T10:19:12.203Z,76.91
2017-10-28T10:21:39.598Z,76.86
2017-10-28T10:24:06.987Z,76.79
2017-10-28T10:26:34.371Z,76.63
2017-10-28T10:29:01.767Z,76.07
2017-10-28T10:31:29.238Z,76.28
2017-10-28T10:33:56.628Z,76.78
2017-10-28T10:36:24.054Z,76.87
2017-10-28T10:38:51.443Z,76.30
2017-10-28T10:41:18.864Z,76.04
2017-10-28T10:43:46.320Z,76.38
2017-10-28T10:46:13.711Z,75.79
2017-10-28T10:48:41.102Z,76.31
2017-10-28T10:51:08.508Z,76.47
2017-10-28T10:53:35.893Z,76.04
2017-10-28T10:56:03.399Z,75.88
2017-10-28T10:58:30.794Z,75.91
2017-10-28T11:00:58.224Z,75.88
2017-10-28T11:03:25.670Z,76.03
2017-10-28T11:05:53.068Z,75.67
2017-10-28T11:08:20.454Z,75.71
2017-10-28T11:10:47.846Z,76.00
2017-10-28T11:13:15.251Z,75.57
2017-10-28T11:15:42.646Z,75.39
2017-10-28T11:18:10.104Z,75.42
2017-10-28T11:20:37.554Z,74.96
2017-10-28T11:23:04.965Z,75.02
2017-10-28T11:25:32.357Z,74.84
2017-10-28T11:27:59.826Z,74.68
2017-10-28T11:30:27.211Z,75.20
2017-10-28T11:32:54.634Z,75.02
2017-10-28T11:35:22.024Z,74.49
2017-10-28T11:37:49.420Z,74.96
2017-10-28T11:40:16.802Z,74.79
2017-10-28T11:42:44.194Z,74.54
2017-10-28T11:45:11.609Z,75.10
2017-10-28T11:47:39.035Z,75.49
2017-10-28T11:50:06.524Z,75.49
2017-10-28T11:52:33.930Z,76.03
2017-10-28T11:55:01.382Z,76.29
2017-10-28T11:57:28.773Z,75.65
2017-10-28T11:59:56.166Z,75.63
2017-10-28T12:02:23.691Z,75.14
2017-10-28T12:04:51.079Z,75.10
2017-10-28T12:07:18.566Z,74.83
2017-10-28T12:09:45.950Z,75.05
2017-10-28T12:12:13.352Z,75.26
2017-10-28T12:14:40.739Z,75.43
2017-10-28T12:17:08.263Z,75.55
2017-10-28T12:19:35.651Z,75.55
2017-10-28T12:22:03.099Z,74.83
2017-10-28T12:24:30.498Z,74.02
2017-10-28T12:26:57.896Z,74.89
2017-10-28T12:29:25.292Z,75.13
2017-10-28T12:31:52.684Z,74.90
2017-10-28T12:34:20.089Z,75.79
2017-10-28T12:36:47.484Z,75.42
2017-10-28T12:39:14.883Z,75.38
2017-10-28T12:41:42.267Z,75.33
2017-10-28T12:44:09.663Z,75.41
2017-10-28T12:46:37.049Z,74.78
2017-10-28T12:49:04.519Z,75.35
2017-10-28T12:51:31.906Z,75.15
2017-10-28T12:53:59.309Z,74.29
2017-10-28T12:56:26.798Z,74.85
2017-10-28T12:58:54.242Z,74.54
2017-10-28T13:01:21.627Z,75.26
2017-10-28T13:03:49.019Z,74.98
2017-10-28T13:06:16.506Z,75.22
2017-10-28T13:08:43.966Z,74.85
2017-10-28T13:11:11.391Z,74.75
2017-10-28T13:13:38.875Z,74.74
2017-10-28T13:16:06.273Z,74.43
2017-10-28T13:18:33.675Z,74.72
2017-10-28T13:21:01.142Z,74.99
2017-10-28T13:23:28.547Z,75.47
2017-10-28T13:25:55.943Z,75.51
2017-10-28T13:28:23.407Z,75.28
2017-10-28T13:30:50.807Z,75.79
2017-10-28T13:33:18.232Z,75.93
2017-10-28T13:35:45.679Z,75.93
2017-10-28T13:38:13.316Z,76.08
2017-10-28T13:40:40.727Z,76.56
2017-10-28T13:43:08.103Z,76.14
2017-10-28T13:45:35.502Z,75.68
2017-10-28T13:48:02.878Z,76.14
2017-10-28T13:50:30.275Z,76.72
2017-10-28T13:52:57.668Z,76.47
2017-10-28T13:55:25.067Z,76.60
2017-10-28T13:57:52.499Z,76.43
2017-10-28T14:00:19.890Z,76.14
2017-10-28T14:02:47.278Z,76.76
2017-10-28T14:05:14.680Z,76.87
2017-10-28T14:07:42.071Z,77.13
2017-10-28T14:10:09.476Z,76.92
2017-10-28T14:12:36.867Z,76.50
2017-10-28T14:15:04.388Z,76.36
2017-10-28T14:17:31.775Z,76.01
2017-10-28T14:19:59.206Z,76.23
2017-10-28T14:22:26.601Z,76.94
2017-10-28T14:24:53.986Z,77.14
2017-10-28T14:27:21.484Z,77.15
2017-10-28T14:29:48.858Z,77.29
2017-10-28T14:32:17.072Z,76.95
2017-10-28T14:34:44.545Z,77.04
2017-10-28T14:37:11.942Z,76.77
2017-10-28T14:39:39.336Z,77.55
2017-10-28T14:42:06.734Z,77.50
2017-10-28T14:44:34.131Z,77.63
2017-10-28T14:47:01.649Z,77.40
2017-10-28T14:49:29.082Z,77.46
2017-10-28T14:51:56.487Z,77.48
2017-10-28T14:54:23.910Z,77.29
2017-10-28T14:56:51.289Z,77.14
2017-10-28T14:59:18.682Z,77.58
2017-10-28T15:01:46.076Z,77.62
2017-10-28T15:04:13.474Z,77.36
2017-10-28T15:06:40.862Z,77.76
2017-10-28T15:09:08.254Z,78.10
2017-10-28T15:11:35.721Z,78.26
2017-10-28T15:14:03.119Z,77.94
2017-10-28T15:16:30.499Z,77.75
2017-10-28T15:18:57.894Z,77.76
2017-10-28T15:21:25.282Z,78.20
2017-10-28T15:23:52.767Z,79.04
2017-10-28T15:26:20.227Z,78.90
2017-10-28T15:28:47.615Z,79.46
2017-10-28T15:31:15.027Z,79.24
2017-10-28T15:33:42.507Z,80.04
2017-10-28T15:36:09.882Z,80.25
2017-10-28T15:38:37.274Z,80.69
2017-10-28T15:41:04.672Z,80.06
2017-10-28T15:43:32.066Z,80.13
2017-10-28T15:45:59.563Z,79.71
2017-10-28T15:48:26.946Z,79.79
2017-10-28T15:50:54.343Z,79.54
2017-10-28T15:53:21.734Z,79.15
2017-10-28T15:55:49.135Z,79.01
2017-10-28T15:58:16.548Z,79.64
2017-10-28T16:00:44.004Z,79.92
2017-10-28T16:03:11.403Z,79.79
2017-10-28T16:05:38.786Z,79.78
2017-10-28T16:08:06.190Z,80.14
2017-10-28T16:10:33.574Z,79.96
2017-10-28T16:13:00.995Z,80.05
2017-10-28T16:15:28.394Z,80.38
2017-10-28T16:17:55.805Z,80.49
2017-10-28T16:20:23.219Z,81.38
2017-10-28T16:22:50.704Z,82.35
2017-10-28T16:25:18.159Z,82.44
2017-10-28T16:27:45.542Z,82.68
2017-10-28T16:30:12.942Z,82.25
2017-10-28T16:32:40.345Z,82.56
2017-10-28T16:35:07.730Z,82.41
2017-10-28T16:37:35.125Z,82.40
2017-10-28T16:40:02.515Z,83.97
2017-10-28T16:42:29.939Z,85.11
2017-10-28T16:44:57.407Z,85.61
2017-10-28T16:47:24.855Z,85.57
2017-10-28T16:49:52.239Z,86.33
2017-10-28T16:52:19.633Z,87.35
2017-10-28T16:54:47.018Z,87.48
2017-10-28T16:57:14.520Z,87.38
2017-10-28T16:59:41.902Z,87.84
2017-10-28T17:02:09.295Z,88.30
2017-10-28T17:04:36.757Z,88.46
2017-10-28T17:07:04.146Z,88.12
2017-10-28T17:09:31.550Z,87.95
2017-10-28T17:11:59.030Z,88.10
2017-10-28T17:14:26.403Z,88.42
2017-10-28T17:16:53.802Z,88.38
2017-10-28T17:19:21.289Z,87.96
2017-10-28T17:21:48.952Z,87.70
2017-10-28T17:24:16.471Z,88.41
2017-10-28T17:26:43.850Z,87.87
2017-10-28T17:29:11.247Z,88.24
2017-10-28T17:31:38.636Z,88.41
2017-10-28T17:34:06.075Z,88.71
2017-10-28T17:36:33.548Z,88.95
2017-10-28T17:39:01.034Z,88.84
2017-10-28T17:41:28.428Z,89.31
2017-10-28T17:43:55.829Z,89.93
2017-10-28T17:46:23.219Z,89.96
2017-10-28T17:48:50.606Z,89.83
2017-10-28T17:51:17.995Z,90.17
2017-10-28T17:53:45.384Z,90.15
2017-10-28T17:56:12.770Z,90.35
2017-10-28T17:58:40.158Z,91.09
2017-10-28T18:01:07.599Z,90.85
2017-10-28T18:03:35.000Z,90.98
2017-10-28T18:06:02.395Z,91.24
2017-10-28T18:08:29.795Z,91.37
2017-10-28T18:10:57.187Z,91.19
2017-10-28T18:13:24.600Z,90.87
2017-10-28T18:15:51.976Z,91.19
2017-10-28T18:18:19.385Z,91.27
2017-10-28T18:20:46.843Z,91.49
2017-10-28T18:23:14.227Z,91.98
2017-10-28T18:25:41.758Z,92.24
2017-10-28T18:28:09.150Z,92.18
2017-10-28T18:30:36.567Z,92.42
2017-10-28T18:33:03.959Z,92.36
2017-10-28T18:35:31.359Z,92.11
2017-10-28T18:37:58.856Z,92.16
2017-10-28T18:40:26.245Z,92.21
2017-10-28T18:42:53.614Z,91.84
2017-10-28T18:45:21.043Z,92.30
2017-10-28T18:47:48.441Z,92.38
2017-10-28T18:50:15.830Z,92.78
2017-10-28T18:52:43.212Z,92.85
2017-10-28T18:55:10.622Z,92.69
2017-10-28T18:57:38.009Z,92.48
2017-10-28T19:00:05.392Z,92.90
2017-10-28T19:02:32.777Z,93.05
2017-10-28T19:05:00.163Z,93.07
2017-10-28T19:07:27.539Z,93.15
2017-10-28T19:09:54.955Z,93.18
2017-10-28T19:12:22.414Z,92.86
2017-10-28T19:14:49.871Z,92.80
2017-10-28T19:17:17.275Z,92.83
2017-10-28T19:19:44.664Z,92.84
2017-10-28T19:22:12.051Z,92.94
2017-10-28T19:24:39.483Z,93.06
2017-10-28T19:27:06.938Z,92.86
2017-10-28T19:29:34.338Z,93.03
2017-10-28T19:32:01.715Z,92.42
2017-10-28T19:34:29.094Z,92.74
2017-10-28T19:36:56.501Z,92.65
2017-10-28T19:39:23.897Z,92.75
2017-10-28T19:41:51.278Z,92.75
2017-10-28T19:44:18.663Z,93.05
2017-10-28T19:46:46.062Z,93.16
2017-10-28T19:49:13.506Z,93.10
2017-10-28T19:51:40.900Z,93.17
2017-10-28T19:54:08.286Z,93.62
2017-10-28T19:56:35.670Z,93.71
2017-10-28T19:59:03.059Z,93.40
2017-10-28T20:01:30.618Z,93.51
2017-10-28T20:03:57.978Z,93.62
2017-10-28T20:06:25.364Z,93.57
2017-10-28T20:08:52.759Z,93.37
2017-10-28T20:11:20.140Z,93.12
2017-10-28T20:13:47.559Z,92.98
2017-10-28T20:16:14.943Z,93.26
2017-10-28T20:18:42.335Z,93.11
2017-10-28T20:21:09.720Z,92.71
2017-10-28T20:23:37.175Z,92.67
2017-10-28T20:26:04.562Z,93.02
2017-10-28T20:28:31.954Z,92.91
2017-10-28T20:30:59.438Z,93.19
2017-10-28T20:33:26.827Z,93.10
2017-10-28T20:35:54.218Z,93.36
2017-10-28T20:38:21.711Z,93.65
2017-10-28T20:40:49.098Z,93.54
2017-10-28T20:43:16.510Z,93.77
2017-10-28T20:45:43.970Z,93.32
2017-10-28T20:48:11.362Z,93.08
2017-10-28T20:50:38.793Z,92.92
2017-10-28T20:53:06.242Z,92.60
2017-10-28T20:55:33.702Z,93.00
2017-10-28T20:58:01.090Z,92.76
2017-10-28T21:00:28.482Z,92.81
2017-10-28T21:02:55.878Z,92.81
2017-10-28T21:05:23.326Z,93.06
2017-10-28T21:07:51.506Z,92.63
2017-10-28T21:10:18.903Z,92.07
2017-10-28T21:12:46.307Z,92.32
2017-10-28T21:15:13.698Z,92.81
2017-10-28T21:17:41.160Z,93.12
2017-10-28T21:20:08.545Z,92.89
2017-10-28T21:22:36.050Z,92.28
2017-10-28T21:25:03.435Z,92.01
2017-10-28T21:27:30.856Z,91.65
2017-10-28T21:29:58.248Z,91.54
2017-10-28T21:32:25.616Z,91.53
2017-10-28T21:34:53.014Z,91.65
2017-10-28T21:37:20.398Z,90.98
2017-10-28T21:39:47.785Z,90.53
2017-10-28T21:42:15.162Z,90.18
2017-10-28T21:44:42.542Z,89.71
2017-10-28T21:47:09.930Z,89.11
2017-10-28T21:49:37.339Z,88.89
2017-10-28T21:52:04.731Z,89.17
2017-10-28T21:54:32.125Z,89.05
2017-10-28T21:56:59.516Z,88.98
2017-10-28T21:59:26.963Z,88.93
2017-10-28T22:01:54.355Z,89.06
2017-10-28T22:04:21.736Z,89.32
2017-10-28T22:06:49.131Z,89.30
2017-10-28T22:09:16.516Z,89.29
2017-10-28T22:11:43.944Z,89.40
2017-10-28T22:14:11.303Z,89.05
2017-10-28T22:16:38.686Z,88.94
2017-10-28T22:19:06.070Z,88.49
2017-10-28T22:21:33.470Z,88.80
2017-10-28T22:24:00.875Z,88.31
2017-10-28T22:26:28.258Z,88.05
2017-10-28T22:28:55.692Z,88.18
2017-10-28T22:31:23.078Z,88.27
2017-10-28T22:33:50.470Z,88.75
2017-10-28T22:36:17.852Z,88.50
2017-10-28T22:38:45.314Z,89.04
2017-10-28T22:41:12.772Z,89.34
2017-10-28T22:43:40.237Z,89.69
2017-10-28T22:46:07.602Z,89.97
2017-10-28T22:48:34.986Z,89.47
2017-10-28T22:51:02.375Z,89.84
2017-10-28T22:53:29.765Z,90.04
2017-10-28T22:55:57.193Z,90.48
2017-10-28T22:58:24.599Z,91.61
2017-10-28T23:00:51.978Z,91.72
2017-10-28T23:03:19.472Z,92.24
2017-10-28T23:05:46.847Z,92.62
2017-10-28T23:08:14.239Z,92.78
2017-10-28T23:10:41.666Z,92.62
2017-10-28T23:13:09.059Z,92.91
2017-10-28T23:15:36.547Z,93.08
2017-10-28T23:18:03.952Z,92.76
2017-10-28T23:20:31.338Z,92.59
2017-10-28T23:22:58.835Z,92.78
2017-10-28T23:25:26.279Z,93.08
2017-10-28T23:27:53.739Z,93.15
2017-10-28T23:30:21.127Z,93.05
2017-10-28T23:32:48.523Z,92.74
2017-10-28T23:35:15.923Z,92.87
2017-10-28T23:37:43.307Z,91.72
2017-10-28T23:40:10.698Z,91.82
2017-10-28T23:42:38.165Z,91.37
2017-10-28T23:45:05.550Z,91.08
2017-10-28T23:47:32.983Z,91.18
2017-10-28T23:50:00.376Z,90.82
2017-10-28T23:52:27.790Z,90.36
2017-10-28T23:54:55.245Z,89.85
2017-10-28T23:57:22.704Z,89.94
2017-10-28T23:59:50.099Z,90.31
